sensor_id;sensor_type;location;lat;lon;timestamp;temperature;humidity
55719;DHT22;41623;46.104;19.656;2023-05-10T00:01:23;512.90;1459.20
55719;DHT22;41623;46.104;19.656;2023-05-10T00:03:49;512.80;1459.20
55719;DHT22;41623;46.104;19.656;2023-05-10T00:06:15;512.80;1459.20
55719;DHT22;41623;46.104;19.656;2023-05-10T00:08:41;512.80;1459.20
55719;DHT22;41623;46.104;19.656;2023-05-10T00:11:07;512.80;1459.20
55719;DHT22;41623;46.104;19.656;2023-05-10T00:13:33;512.80;1459.20
55719;DHT22;41623;46.104;19.656;2023-05-10T00:15:58;512.90;1459.20
55719;DHT22;41623;46.104;19.656;2023-05-10T00:18:24;512.90;1459.20
55719;DHT22;41623;46.104;19.656;2023-05-10T00:20:50;512.80;1459.20
55719;DHT22;41623;46.104;19.656;2023-05-10T00:23:16;512.80;1459.20
55719;DHT22;41623;46.104;19.656;2023-05-10T00:25:42;512.80;1459.20
55719;DHT22;41623;46.104;19.656;2023-05-10T00:28:07;512.80;1459.20
55719;DHT22;41623;46.104;19.656;2023-05-10T00:30:33;512.80;1459.20
55719;DHT22;41623;46.104;19.656;2023-05-10T00:32:59;512.80;1459.20
55719;DHT22;41623;46.104;19.656;2023-05-10T00:35:24;512.80;1459.20
55719;DHT22;41623;46.104;19.656;2023-05-10T00:37:51;512.80;1459.20
55719;DHT22;41623;46.104;19.656;2023-05-10T00:40:17;512.80;1459.20
55719;DHT22;41623;46.104;19.656;2023-05-10T00:42:42;512.80;1459.20
55719;DHT22;41623;46.104;19.656;2023-05-10T00:45:08;512.80;1459.20
55719;DHT22;41623;46.104;19.656;2023-05-10T00:47:34;512.80;1459.20
55719;DHT22;41623;46.104;19.656;2023-05-10T00:50:00;512.80;1459.20
55719;DHT22;41623;46.104;19.656;2023-05-10T00:52:28;512.80;1459.20
55719;DHT22;41623;46.104;19.656;2023-05-10T00:54:54;512.80;1459.20
55719;DHT22;41623;46.104;19.656;2023-05-10T00:57:21;512.80;1459.20
55719;DHT22;41623;46.104;19.656;2023-05-10T00:59:46;512.80;1459.20
55719;DHT22;41623;46.104;19.656;2023-05-10T01:02:13;512.80;1459.20
55719;DHT22;41623;46.104;19.656;2023-05-10T01:04:39;512.80;1459.20
55719;DHT22;41623;46.104;19.656;2023-05-10T01:07:05;512.80;1459.20
55719;DHT22;41623;46.104;19.656;2023-05-10T01:09:31;512.80;1459.20
55719;DHT22;41623;46.104;19.656;2023-05-10T01:11:57;512.80;1459.20
55719;DHT22;41623;46.104;19.656;2023-05-10T01:14:24;512.90;1459.20
55719;DHT22;41623;46.104;19.656;2023-05-10T01:16:50;512.80;1459.20
55719;DHT22;41623;46.104;19.656;2023-05-10T01:19:29;512.80;1459.20
55719;DHT22;41623;46.104;19.656;2023-05-10T01:38:50;512.80;1459.20
55719;DHT22;41623;46.104;19.656;2023-05-10T01:47:37;512.80;1459.20
55719;DHT22;41623;46.104;19.656;2023-05-10T01:50:06;512.80;1459.20
55719;DHT22;41623;46.104;19.656;2023-05-10T01:52:41;512.80;1459.20
55719;DHT22;41623;46.104;19.656;2023-05-10T01:55:11;512.80;1459.20
55719;DHT22;41623;46.104;19.656;2023-05-10T01:57:40;512.80;1459.20
55719;DHT22;41623;46.104;19.656;2023-05-10T02:00:09;512.80;1459.20
55719;DHT22;41623;46.104;19.656;2023-05-10T02:02:39;512.80;1459.20
55719;DHT22;41623;46.104;19.656;2023-05-10T02:05:07;512.80;1459.20
55719;DHT22;41623;46.104;19.656;2023-05-10T02:07:36;512.80;1459.20
55719;DHT22;41623;46.104;19.656;2023-05-10T02:10:06;512.80;1459.20
55719;DHT22;41623;46.104;19.656;2023-05-10T02:12:36;512.80;1459.20
55719;DHT22;41623;46.104;19.656;2023-05-10T02:15:05;512.80;1459.20
55719;DHT22;41623;46.104;19.656;2023-05-10T02:17:32;512.80;1459.20
55719;DHT22;41623;46.104;19.656;2023-05-10T02:19:59;512.80;1459.20
55719;DHT22;41623;46.104;19.656;2023-05-10T02:22:27;512.80;1459.20
55719;DHT22;41623;46.104;19.656;2023-05-10T02:24:58;512.80;1459.20
55719;DHT22;41623;46.104;19.656;2023-05-10T02:27:27;512.80;1459.20
55719;DHT22;41623;46.104;19.656;2023-05-10T02:29:53;512.80;1459.20
55719;DHT22;41623;46.104;19.656;2023-05-10T02:32:21;512.80;1459.20
55719;DHT22;41623;46.104;19.656;2023-05-10T02:34:49;512.80;1459.20
55719;DHT22;41623;46.104;19.656;2023-05-10T02:37:19;512.80;1459.20
55719;DHT22;41623;46.104;19.656;2023-05-10T02:39:49;512.80;1459.20
55719;DHT22;41623;46.104;19.656;2023-05-10T02:42:19;512.80;1459.20
55719;DHT22;41623;46.104;19.656;2023-05-10T02:44:50;512.80;1459.20
55719;DHT22;41623;46.104;19.656;2023-05-10T02:47:17;512.80;1459.20
55719;DHT22;41623;46.104;19.656;2023-05-10T02:49:43;512.80;1459.20
55719;DHT22;41623;46.104;19.656;2023-05-10T02:52:10;512.80;1459.20
55719;DHT22;41623;46.104;19.656;2023-05-10T02:54:48;512.80;1459.20
55719;DHT22;41623;46.104;19.656;2023-05-10T02:57:25;512.80;1459.20
55719;DHT22;41623;46.104;19.656;2023-05-10T02:59:51;512.80;1459.20
55719;DHT22;41623;46.104;19.656;2023-05-10T03:02:17;512.80;1459.20
55719;DHT22;41623;46.104;19.656;2023-05-10T03:04:43;512.80;1459.20
55719;DHT22;41623;46.104;19.656;2023-05-10T03:07:09;512.80;1459.20
55719;DHT22;41623;46.104;19.656;2023-05-10T03:09:35;512.80;1459.20
55719;DHT22;41623;46.104;19.656;2023-05-10T03:12:11;512.80;1459.20
55719;DHT22;41623;46.104;19.656;2023-05-10T03:17:23;512.80;1459.20
55719;DHT22;41623;46.104;19.656;2023-05-10T03:19:56;512.80;1459.20
55719;DHT22;41623;46.104;19.656;2023-05-10T03:22:45;512.80;1459.20
55719;DHT22;41623;46.104;19.656;2023-05-10T03:25:12;512.80;1459.20
55719;DHT22;41623;46.104;19.656;2023-05-10T03:27:43;512.80;1459.20
55719;DHT22;41623;46.104;19.656;2023-05-10T03:30:12;512.80;1459.20
55719;DHT22;41623;46.104;19.656;2023-05-10T03:32:38;512.80;1459.20
55719;DHT22;41623;46.104;19.656;2023-05-10T03:35:11;512.80;1459.20
55719;DHT22;41623;46.104;19.656;2023-05-10T03:37:38;512.80;1459.20
55719;DHT22;41623;46.104;19.656;2023-05-10T03:40:05;512.80;1459.20
55719;DHT22;41623;46.104;19.656;2023-05-10T03:42:31;512.80;1459.20
55719;DHT22;41623;46.104;19.656;2023-05-10T03:44:56;512.80;1459.20
55719;DHT22;41623;46.104;19.656;2023-05-10T03:47:22;512.70;1459.20
55719;DHT22;41623;46.104;19.656;2023-05-10T03:49:48;512.70;1459.20
55719;DHT22;41623;46.104;19.656;2023-05-10T03:52:14;512.80;1459.20
55719;DHT22;41623;46.104;19.656;2023-05-10T03:54:39;512.80;1459.20
55719;DHT22;41623;46.104;19.656;2023-05-10T03:57:05;512.80;1459.20
55719;DHT22;41623;46.104;19.656;2023-05-10T03:59:31;512.70;1459.20
55719;DHT22;41623;46.104;19.656;2023-05-10T04:01:56;512.80;1459.20
55719;DHT22;41623;46.104;19.656;2023-05-10T04:04:22;512.80;1459.20
55719;DHT22;41623;46.104;19.656;2023-05-10T04:06:48;512.70;1459.20
55719;DHT22;41623;46.104;19.656;2023-05-10T04:09:14;512.70;1459.20
55719;DHT22;41623;46.104;19.656;2023-05-10T04:11:40;512.80;1459.20
55719;DHT22;41623;46.104;19.656;2023-05-10T04:14:06;512.80;1459.20
55719;DHT22;41623;46.104;19.656;2023-05-10T04:16:32;512.80;1459.20
55719;DHT22;41623;46.104;19.656;2023-05-10T04:18:57;512.80;1459.20
55719;DHT22;41623;46.104;19.656;2023-05-10T04:21:23;512.80;1459.20
55719;DHT22;41623;46.104;19.656;2023-05-10T04:23:49;512.80;1459.20
55719;DHT22;41623;46.104;19.656;2023-05-10T04:26:15;512.80;1459.20
55719;DHT22;41623;46.104;19.656;2023-05-10T04:28:40;512.80;1459.20
55719;DHT22;41623;46.104;19.656;2023-05-10T04:31:08;512.80;1459.20
55719;DHT22;41623;46.104;19.656;2023-05-10T04:33:35;512.80;1459.20
55719;DHT22;41623;46.104;19.656;2023-05-10T04:36:01;512.70;1459.20
55719;DHT22;41623;46.104;19.656;2023-05-10T04:38:27;512.80;1459.20
55719;DHT22;41623;46.104;19.656;2023-05-10T04:40:53;512.70;1459.20
55719;DHT22;41623;46.104;19.656;2023-05-10T04:43:19;512.70;1459.20
55719;DHT22;41623;46.104;19.656;2023-05-10T04:45:45;512.70;1459.20
55719;DHT22;41623;46.104;19.656;2023-05-10T04:48:11;512.70;1459.20
55719;DHT22;41623;46.104;19.656;2023-05-10T04:50:38;512.80;1459.20
55719;DHT22;41623;46.104;19.656;2023-05-10T04:53:04;512.80;1433.60
55719;DHT22;41623;46.104;19.656;2023-05-10T04:55:30;512.80;1459.20
55719;DHT22;41623;46.104;19.656;2023-05-10T04:57:55;512.80;1459.20
55719;DHT22;41623;46.104;19.656;2023-05-10T05:00:23;512.80;1433.60
55719;DHT22;41623;46.104;19.656;2023-05-10T05:02:48;512.80;1459.20
55719;DHT22;41623;46.104;19.656;2023-05-10T05:05:14;512.60;1433.60
55719;DHT22;41623;46.104;19.656;2023-05-10T05:07:40;512.80;1433.60
55719;DHT22;41623;46.104;19.656;2023-05-10T05:10:07;512.80;1459.20
55719;DHT22;41623;46.104;19.656;2023-05-10T05:12:34;512.70;1433.60
55719;DHT22;41623;46.104;19.656;2023-05-10T05:15:00;512.80;1459.20
55719;DHT22;41623;46.104;19.656;2023-05-10T05:17:26;512.80;1459.20
55719;DHT22;41623;46.104;19.656;2023-05-10T05:19:52;512.50;1459.20
55719;DHT22;41623;46.104;19.656;2023-05-10T05:22:17;512.60;1484.80
55719;DHT22;41623;46.104;19.656;2023-05-10T05:24:45;512.60;1510.40
55719;DHT22;41623;46.104;19.656;2023-05-10T05:27:11;512.60;1484.80
55719;DHT22;41623;46.104;19.656;2023-05-10T05:29:36;512.60;1484.80
55719;DHT22;41623;46.104;19.656;2023-05-10T05:32:02;512.70;1484.80
55719;DHT22;41623;46.104;19.656;2023-05-10T05:34:28;512.70;1484.80
55719;DHT22;41623;46.104;19.656;2023-05-10T05:36:54;512.70;1484.80
55719;DHT22;41623;46.104;19.656;2023-05-10T05:39:20;512.70;1459.20
55719;DHT22;41623;46.104;19.656;2023-05-10T05:41:46;512.70;1459.20
55719;DHT22;41623;46.104;19.656;2023-05-10T05:44:12;512.70;1484.80
55719;DHT22;41623;46.104;19.656;2023-05-10T05:46:37;512.70;1484.80
55719;DHT22;41623;46.104;19.656;2023-05-10T05:49:03;512.70;1459.20
55719;DHT22;41623;46.104;19.656;2023-05-10T05:51:29;512.70;1459.20
55719;DHT22;41623;46.104;19.656;2023-05-10T05:53:55;512.70;1459.20
55719;DHT22;41623;46.104;19.656;2023-05-10T05:56:21;512.70;1459.20
55719;DHT22;41623;46.104;19.656;2023-05-10T05:58:50;512.70;1484.80
55719;DHT22;41623;46.104;19.656;2023-05-10T06:01:16;512.70;1536.00
55719;DHT22;41623;46.104;19.656;2023-05-10T06:03:42;512.70;1561.60
55719;DHT22;41623;46.104;19.656;2023-05-10T06:06:08;512.70;1536.00
55719;DHT22;41623;46.104;19.656;2023-05-10T06:08:33;512.70;1536.00
55719;DHT22;41623;46.104;19.656;2023-05-10T06:11:00;512.70;1536.00
55719;DHT22;41623;46.104;19.656;2023-05-10T06:13:26;512.80;1510.40
55719;DHT22;41623;46.104;19.656;2023-05-10T06:15:57;512.80;1510.40
55719;DHT22;41623;46.104;19.656;2023-05-10T06:18:23;512.80;1510.40
55719;DHT22;41623;46.104;19.656;2023-05-10T06:20:50;512.70;1510.40
55719;DHT22;41623;46.104;19.656;2023-05-10T06:23:16;512.80;1484.80
55719;DHT22;41623;46.104;19.656;2023-05-10T06:25:41;512.70;1484.80
55719;DHT22;41623;46.104;19.656;2023-05-10T06:28:07;512.80;1484.80
55719;DHT22;41623;46.104;19.656;2023-05-10T06:30:35;512.80;1484.80
55719;DHT22;41623;46.104;19.656;2023-05-10T06:33:01;512.80;1484.80
55719;DHT22;41623;46.104;19.656;2023-05-10T06:35:27;512.80;1484.80
55719;DHT22;41623;46.104;19.656;2023-05-10T06:37:53;512.80;1484.80
55719;DHT22;41623;46.104;19.656;2023-05-10T06:40:19;512.80;1459.20
55719;DHT22;41623;46.104;19.656;2023-05-10T06:42:45;512.70;1459.20
55719;DHT22;41623;46.104;19.656;2023-05-10T06:45:12;512.70;1484.80
55719;DHT22;41623;46.104;19.656;2023-05-10T06:47:38;512.70;1459.20
55719;DHT22;41623;46.104;19.656;2023-05-10T06:50:04;512.70;1459.20
55719;DHT22;41623;46.104;19.656;2023-05-10T06:52:30;512.70;1459.20
55719;DHT22;41623;46.104;19.656;2023-05-10T06:54:55;512.70;1459.20
55719;DHT22;41623;46.104;19.656;2023-05-10T06:57:21;512.70;1459.20
55719;DHT22;41623;46.104;19.656;2023-05-10T06:59:47;512.70;1459.20
55719;DHT22;41623;46.104;19.656;2023-05-10T07:02:12;512.70;1459.20
55719;DHT22;41623;46.104;19.656;2023-05-10T07:04:40;512.70;1459.20
55719;DHT22;41623;46.104;19.656;2023-05-10T07:07:05;512.80;1459.20
55719;DHT22;41623;46.104;19.656;2023-05-10T07:09:31;512.80;1459.20
55719;DHT22;41623;46.104;19.656;2023-05-10T07:11:57;512.80;1459.20
55719;DHT22;41623;46.104;19.656;2023-05-10T07:14:23;512.80;1459.20
55719;DHT22;41623;46.104;19.656;2023-05-10T07:16:49;512.80;1459.20
55719;DHT22;41623;46.104;19.656;2023-05-10T07:19:14;512.80;1459.20
55719;DHT22;41623;46.104;19.656;2023-05-10T07:21:40;512.90;1459.20
55719;DHT22;41623;46.104;19.656;2023-05-10T07:24:08;512.90;1459.20
55719;DHT22;41623;46.104;19.656;2023-05-10T07:26:34;512.90;1433.60
55719;DHT22;41623;46.104;19.656;2023-05-10T07:29:00;512.90;1433.60
55719;DHT22;41623;46.104;19.656;2023-05-10T07:31:25;512.90;1433.60
55719;DHT22;41623;46.104;19.656;2023-05-10T07:33:51;512.90;1433.60
55719;DHT22;41623;46.104;19.656;2023-05-10T07:36:17;512.90;1433.60
55719;DHT22;41623;46.104;19.656;2023-05-10T07:38:42;537.60;1459.20
55719;DHT22;41623;46.104;19.656;2023-05-10T07:41:08;537.60;1459.20
55719;DHT22;41623;46.104;19.656;2023-05-10T07:43:34;512.90;1433.60
55719;DHT22;41623;46.104;19.656;2023-05-10T07:46:00;512.90;1433.60
55719;DHT22;41623;46.104;19.656;2023-05-10T07:48:26;537.60;1459.20
55719;DHT22;41623;46.104;19.656;2023-05-10T07:50:51;537.70;1459.20
55719;DHT22;41623;46.104;19.656;2023-05-10T07:53:17;537.60;1433.60
55719;DHT22;41623;46.104;19.656;2023-05-10T07:55:44;537.60;1433.60
55719;DHT22;41623;46.104;19.656;2023-05-10T07:58:10;537.70;1433.60
55719;DHT22;41623;46.104;19.656;2023-05-10T08:00:36;537.70;1433.60
55719;DHT22;41623;46.104;19.656;2023-05-10T08:03:04;537.70;1459.20
55719;DHT22;41623;46.104;19.656;2023-05-10T08:05:30;537.70;1459.20
55719;DHT22;41623;46.104;19.656;2023-05-10T08:07:56;537.70;1459.20
55719;DHT22;41623;46.104;19.656;2023-05-10T08:10:23;537.60;1459.20
55719;DHT22;41623;46.104;19.656;2023-05-10T08:12:49;537.70;1459.20
55719;DHT22;41623;46.104;19.656;2023-05-10T08:15:15;537.60;1459.20
55719;DHT22;41623;46.104;19.656;2023-05-10T08:17:41;537.60;1459.20
55719;DHT22;41623;46.104;19.656;2023-05-10T08:20:08;537.60;1459.20
55719;DHT22;41623;46.104;19.656;2023-05-10T08:22:34;537.70;1459.20
55719;DHT22;41623;46.104;19.656;2023-05-10T08:25:00;537.60;1459.20
55719;DHT22;41623;46.104;19.656;2023-05-10T08:27:26;537.60;1459.20
55719;DHT22;41623;46.104;19.656;2023-05-10T08:29:51;537.60;1459.20
55719;DHT22;41623;46.104;19.656;2023-05-10T08:32:17;537.60;1459.20
55719;DHT22;41623;46.104;19.656;2023-05-10T08:34:43;537.70;1459.20
55719;DHT22;41623;46.104;19.656;2023-05-10T08:37:09;537.70;1433.60
55719;DHT22;41623;46.104;19.656;2023-05-10T08:39:35;537.70;1433.60
55719;DHT22;41623;46.104;19.656;2023-05-10T08:42:03;537.70;1459.20
55719;DHT22;41623;46.104;19.656;2023-05-10T08:44:32;537.70;1459.20
55719;DHT22;41623;46.104;19.656;2023-05-10T08:46:59;537.70;1459.20
55719;DHT22;41623;46.104;19.656;2023-05-10T08:49:31;537.70;1433.60
55719;DHT22;41623;46.104;19.656;2023-05-10T08:51:59;537.80;1433.60
55719;DHT22;41623;46.104;19.656;2023-05-10T08:54:26;537.80;1433.60
55719;DHT22;41623;46.104;19.656;2023-05-10T08:56:51;537.90;1433.60
55719;DHT22;41623;46.104;19.656;2023-05-10T08:59:18;537.90;1433.60
55719;DHT22;41623;46.104;19.656;2023-05-10T09:01:45;537.90;1433.60
55719;DHT22;41623;46.104;19.656;2023-05-10T09:04:13;537.90;1433.60
55719;DHT22;41623;46.104;19.656;2023-05-10T09:06:38;538.00;1433.60
55719;DHT22;41623;46.104;19.656;2023-05-10T09:09:05;538.00;1433.60
55719;DHT22;41623;46.104;19.656;2023-05-10T09:11:30;538.00;1433.60
55719;DHT22;41623;46.104;19.656;2023-05-10T09:13:56;537.90;1433.60
55719;DHT22;41623;46.104;19.656;2023-05-10T09:16:23;537.90;1433.60
55719;DHT22;41623;46.104;19.656;2023-05-10T09:18:49;537.80;1433.60
55719;DHT22;41623;46.104;19.656;2023-05-10T09:21:15;537.80;1459.20
55719;DHT22;41623;46.104;19.656;2023-05-10T09:23:45;537.80;1433.60
55719;DHT22;41623;46.104;19.656;2023-05-10T09:26:12;537.90;1433.60
55719;DHT22;41623;46.104;19.656;2023-05-10T09:28:51;537.90;1433.60
55719;DHT22;41623;46.104;19.656;2023-05-10T09:31:17;537.90;1433.60
55719;DHT22;41623;46.104;19.656;2023-05-10T09:33:46;537.80;1433.60
55719;DHT22;41623;46.104;19.656;2023-05-10T09:36:13;537.80;1433.60
55719;DHT22;41623;46.104;19.656;2023-05-10T09:38:50;537.80;1433.60
55719;DHT22;41623;46.104;19.656;2023-05-10T09:41:21;537.90;1433.60
55719;DHT22;41623;46.104;19.656;2023-05-10T09:43:47;537.80;1433.60
55719;DHT22;41623;46.104;19.656;2023-05-10T09:46:13;537.80;1433.60
55719;DHT22;41623;46.104;19.656;2023-05-10T09:48:46;537.80;1433.60
55719;DHT22;41623;46.104;19.656;2023-05-10T09:51:25;537.70;1433.60
55719;DHT22;41623;46.104;19.656;2023-05-10T09:54:11;537.70;1433.60
55719;DHT22;41623;46.104;19.656;2023-05-10T09:56:38;537.70;1459.20
55719;DHT22;41623;46.104;19.656;2023-05-10T09:59:07;537.70;1433.60
55719;DHT22;41623;46.104;19.656;2023-05-10T10:01:34;537.80;1433.60
55719;DHT22;41623;46.104;19.656;2023-05-10T10:04:05;537.70;1459.20
55719;DHT22;41623;46.104;19.656;2023-05-10T10:06:38;537.70;1433.60
55719;DHT22;41623;46.104;19.656;2023-05-10T10:09:06;537.70;1433.60
55719;DHT22;41623;46.104;19.656;2023-05-10T10:11:33;537.70;1459.20
55719;DHT22;41623;46.104;19.656;2023-05-10T10:13:59;537.70;1459.20
55719;DHT22;41623;46.104;19.656;2023-05-10T10:16:30;537.60;1459.20
55719;DHT22;41623;46.104;19.656;2023-05-10T10:18:56;537.60;1459.20
55719;DHT22;41623;46.104;19.656;2023-05-10T10:21:23;537.60;1459.20
55719;DHT22;41623;46.104;19.656;2023-05-10T10:23:49;512.90;1433.60
55719;DHT22;41623;46.104;19.656;2023-05-10T10:26:16;537.60;1459.20
55719;DHT22;41623;46.104;19.656;2023-05-10T10:29:05;537.60;1459.20
55719;DHT22;41623;46.104;19.656;2023-05-10T10:34:28;512.90;1433.60
55719;DHT22;41623;46.104;19.656;2023-05-10T10:36:55;512.90;1433.60
55719;DHT22;41623;46.104;19.656;2023-05-10T10:39:23;512.90;1433.60
55719;DHT22;41623;46.104;19.656;2023-05-10T10:41:54;512.90;1408.00
55719;DHT22;41623;46.104;19.656;2023-05-10T10:50:13;512.90;1408.00
55719;DHT22;41623;46.104;19.656;2023-05-10T10:52:42;512.90;1408.00
55719;DHT22;41623;46.104;19.656;2023-05-10T11:02:53;512.90;1408.00
55719;DHT22;41623;46.104;19.656;2023-05-10T11:10:35;512.90;1433.60
55719;DHT22;41623;46.104;19.656;2023-05-10T11:13:02;512.90;1408.00
55719;DHT22;41623;46.104;19.656;2023-05-10T11:17:56;512.90;1408.00
55719;DHT22;41623;46.104;19.656;2023-05-10T11:20:22;512.90;1408.00
55719;DHT22;41623;46.104;19.656;2023-05-10T11:22:54;512.90;1408.00
55719;DHT22;41623;46.104;19.656;2023-05-10T11:25:26;512.90;1408.00
55719;DHT22;41623;46.104;19.656;2023-05-10T11:27:51;512.90;1433.60
55719;DHT22;41623;46.104;19.656;2023-05-10T11:30:17;512.90;1408.00
55719;DHT22;41623;46.104;19.656;2023-05-10T11:32:43;512.90;1433.60
55719;DHT22;41623;46.104;19.656;2023-05-10T11:35:12;512.90;1433.60
55719;DHT22;41623;46.104;19.656;2023-05-10T11:37:41;512.90;1433.60
55719;DHT22;41623;46.104;19.656;2023-05-10T11:40:09;512.90;1433.60
55719;DHT22;41623;46.104;19.656;2023-05-10T11:42:38;512.90;1433.60
55719;DHT22;41623;46.104;19.656;2023-05-10T11:45:05;512.90;1408.00
55719;DHT22;41623;46.104;19.656;2023-05-10T11:47:31;512.90;1433.60
55719;DHT22;41623;46.104;19.656;2023-05-10T11:49:57;512.90;1408.00
55719;DHT22;41623;46.104;19.656;2023-05-10T11:52:23;512.90;1433.60
55719;DHT22;41623;46.104;19.656;2023-05-10T11:54:52;512.90;1433.60
55719;DHT22;41623;46.104;19.656;2023-05-10T11:57:19;512.90;1408.00
55719;DHT22;41623;46.104;19.656;2023-05-10T11:59:46;512.90;1433.60
55719;DHT22;41623;46.104;19.656;2023-05-10T12:02:13;512.90;1433.60
55719;DHT22;41623;46.104;19.656;2023-05-10T12:04:39;512.90;1433.60
55719;DHT22;41623;46.104;19.656;2023-05-10T12:07:05;512.90;1433.60
55719;DHT22;41623;46.104;19.656;2023-05-10T12:09:31;512.90;1433.60
55719;DHT22;41623;46.104;19.656;2023-05-10T12:11:57;512.90;1433.60
55719;DHT22;41623;46.104;19.656;2023-05-10T12:14:22;512.90;1433.60
55719;DHT22;41623;46.104;19.656;2023-05-10T12:16:50;512.90;1433.60
55719;DHT22;41623;46.104;19.656;2023-05-10T12:19:19;512.90;1433.60
55719;DHT22;41623;46.104;19.656;2023-05-10T12:21:47;512.90;1433.60
55719;DHT22;41623;46.104;19.656;2023-05-10T12:24:12;512.90;1433.60
55719;DHT22;41623;46.104;19.656;2023-05-10T12:26:39;512.90;1433.60
55719;DHT22;41623;46.104;19.656;2023-05-10T12:29:20;512.90;1433.60
55719;DHT22;41623;46.104;19.656;2023-05-10T12:31:56;512.90;1433.60
55719;DHT22;41623;46.104;19.656;2023-05-10T12:36:53;512.90;1433.60
55719;DHT22;41623;46.104;19.656;2023-05-10T12:39:19;512.90;1433.60
55719;DHT22;41623;46.104;19.656;2023-05-10T12:41:45;512.90;1433.60
55719;DHT22;41623;46.104;19.656;2023-05-10T12:44:11;512.90;1433.60
55719;DHT22;41623;46.104;19.656;2023-05-10T12:46:37;512.90;1433.60
55719;DHT22;41623;46.104;19.656;2023-05-10T12:49:03;512.80;1433.60
55719;DHT22;41623;46.104;19.656;2023-05-10T12:51:28;512.80;1433.60
55719;DHT22;41623;46.104;19.656;2023-05-10T12:53:54;512.90;1433.60
55719;DHT22;41623;46.104;19.656;2023-05-10T12:56:20;512.90;1433.60
55719;DHT22;41623;46.104;19.656;2023-05-10T12:58:46;512.90;1433.60
55719;DHT22;41623;46.104;19.656;2023-05-10T13:01:14;512.90;1433.60
55719;DHT22;41623;46.104;19.656;2023-05-10T13:03:39;512.80;1433.60
55719;DHT22;41623;46.104;19.656;2023-05-10T13:06:05;512.80;1433.60
55719;DHT22;41623;46.104;19.656;2023-05-10T13:08:32;512.80;1433.60
55719;DHT22;41623;46.104;19.656;2023-05-10T13:10:59;512.80;1433.60
55719;DHT22;41623;46.104;19.656;2023-05-10T13:13:25;512.80;1433.60
55719;DHT22;41623;46.104;19.656;2023-05-10T13:15:51;512.80;1433.60
55719;DHT22;41623;46.104;19.656;2023-05-10T13:18:17;512.80;1433.60
55719;DHT22;41623;46.104;19.656;2023-05-10T13:20:43;512.80;1433.60
55719;DHT22;41623;46.104;19.656;2023-05-10T13:23:10;512.80;1433.60
55719;DHT22;41623;46.104;19.656;2023-05-10T13:25:36;512.80;1433.60
55719;DHT22;41623;46.104;19.656;2023-05-10T13:28:02;512.80;1433.60
55719;DHT22;41623;46.104;19.656;2023-05-10T13:30:28;512.80;1433.60
55719;DHT22;41623;46.104;19.656;2023-05-10T13:32:54;512.80;1433.60
55719;DHT22;41623;46.104;19.656;2023-05-10T13:35:20;512.80;1433.60
55719;DHT22;41623;46.104;19.656;2023-05-10T13:37:46;512.80;1433.60
55719;DHT22;41623;46.104;19.656;2023-05-10T13:40:12;512.80;1433.60
55719;DHT22;41623;46.104;19.656;2023-05-10T13:42:37;512.80;1433.60
55719;DHT22;41623;46.104;19.656;2023-05-10T13:45:04;512.80;1433.60
55719;DHT22;41623;46.104;19.656;2023-05-10T13:47:29;512.80;1433.60
55719;DHT22;41623;46.104;19.656;2023-05-10T13:49:55;512.80;1433.60
55719;DHT22;41623;46.104;19.656;2023-05-10T13:52:21;512.80;1433.60
55719;DHT22;41623;46.104;19.656;2023-05-10T13:54:47;512.90;1459.20
55719;DHT22;41623;46.104;19.656;2023-05-10T13:57:12;512.90;1459.20
55719;DHT22;41623;46.104;19.656;2023-05-10T13:59:39;512.90;1459.20
55719;DHT22;41623;46.104;19.656;2023-05-10T14:02:05;512.90;1459.20
55719;DHT22;41623;46.104;19.656;2023-05-10T14:04:31;512.90;1459.20
55719;DHT22;41623;46.104;19.656;2023-05-10T14:06:57;512.90;1459.20
55719;DHT22;41623;46.104;19.656;2023-05-10T14:09:23;512.90;1459.20
55719;DHT22;41623;46.104;19.656;2023-05-10T14:11:49;512.90;1459.20
55719;DHT22;41623;46.104;19.656;2023-05-10T14:14:14;512.90;1459.20
55719;DHT22;41623;46.104;19.656;2023-05-10T14:16:44;512.90;1459.20
55719;DHT22;41623;46.104;19.656;2023-05-10T14:19:10;512.90;1459.20
55719;DHT22;41623;46.104;19.656;2023-05-10T14:21:36;512.90;1459.20
55719;DHT22;41623;46.104;19.656;2023-05-10T14:24:02;512.90;1459.20
55719;DHT22;41623;46.104;19.656;2023-05-10T14:26:28;512.90;1459.20
55719;DHT22;41623;46.104;19.656;2023-05-10T14:28:54;512.90;1459.20
55719;DHT22;41623;46.104;19.656;2023-05-10T14:31:19;512.90;1459.20
55719;DHT22;41623;46.104;19.656;2023-05-10T14:33:50;512.90;1459.20
55719;DHT22;41623;46.104;19.656;2023-05-10T14:36:15;512.90;1459.20
55719;DHT22;41623;46.104;19.656;2023-05-10T14:38:41;512.90;1459.20
55719;DHT22;41623;46.104;19.656;2023-05-10T14:41:07;512.90;1459.20
55719;DHT22;41623;46.104;19.656;2023-05-10T14:43:33;512.90;1459.20
55719;DHT22;41623;46.104;19.656;2023-05-10T14:45:58;512.90;1459.20
55719;DHT22;41623;46.104;19.656;2023-05-10T14:48:24;512.90;1459.20
55719;DHT22;41623;46.104;19.656;2023-05-10T14:50:50;512.90;1459.20
55719;DHT22;41623;46.104;19.656;2023-05-10T14:53:17;512.90;1459.20
55719;DHT22;41623;46.104;19.656;2023-05-10T14:55:43;512.90;1459.20
55719;DHT22;41623;46.104;19.656;2023-05-10T14:58:09;512.90;1459.20
55719;DHT22;41623;46.104;19.656;2023-05-10T15:00:35;512.90;1459.20
55719;DHT22;41623;46.104;19.656;2023-05-10T15:03:01;512.90;1459.20
55719;DHT22;41623;46.104;19.656;2023-05-10T15:05:27;512.90;1459.20
55719;DHT22;41623;46.104;19.656;2023-05-10T15:07:53;512.90;1459.20
55719;DHT22;41623;46.104;19.656;2023-05-10T15:10:18;512.90;1459.20
55719;DHT22;41623;46.104;19.656;2023-05-10T15:12:44;512.90;1459.20
55719;DHT22;41623;46.104;19.656;2023-05-10T15:15:10;512.90;1459.20
55719;DHT22;41623;46.104;19.656;2023-05-10T15:17:36;512.90;1459.20
55719;DHT22;41623;46.104;19.656;2023-05-10T15:20:02;512.90;1459.20
55719;DHT22;41623;46.104;19.656;2023-05-10T15:22:30;512.90;1459.20
55719;DHT22;41623;46.104;19.656;2023-05-10T15:24:59;512.90;1459.20
55719;DHT22;41623;46.104;19.656;2023-05-10T15:27:26;512.90;1459.20